DAUADAUI

Guest
Details From DAUA - TOUAT CHEIKH SIDI MOHAMED BELKEBIR
To DAUI - IN SALAH
Flight Number -
Tags generated
Created
Modified
Stats Distance 151 nm / 279 km
Max Altitude 9,500 ft / 2,896 m
Waypoints 4
Social Downloads 0
Likes 0
Share VATSIM

Download

Looking for another format? Having issues loading an existing format? Contact us
Advertisement - Login to hide

Notes

Basic altitude profile: - Ascent Rate: 2500ft/min - Ascent Speed: 250kts - Cruise Altitude: 35000ft - Cruise Speed: 420kts - Descent Rate: 1500ft/min - Descent Speed: 250kts Options: - Use NATs: yes - Use PACOTS: yes - Use low airways: yes - Use high airways: yes

Route

DAUA ADR J41 NSL DAUI

ID Type Via Altitude Latitude Longitude Leg Dist Tot Dist Heading (true) Name
O DAUA APT - 0 ft / 0 m 27.83764˚ -0.18639˚ - 0 nm - TOUAT CHEIKH SIDI MOHAMED BELKEBIR
ADR VOR - 500 ft / 152 m 27.81704˚ -0.20587˚ 1 nm 1 nm 220° / 220° ADRAR VOR-DME
NSL VOR J41 (AWY-LO) 9,500 ft / 2,896 m 27.23667˚ 2.49250˚ 147 nm 149 nm 103° / 104° IN SALAH VOR-DME
O DAUI APT - 0 ft / 0 m 27.25102˚ 2.51202˚ 1 nm 150 nm 50° / 50° IN SALAH

Altitude Profile

Advertisement - Login to hide

DAUA

Details ICAO DAUA (AZR)
Name TOUAT CHEIKH SIDI MOHAMED BELKEBIR
Region Algeria
Timezone Africa/Algiers (UTC+1.0)
Stats Elevation 919 ft / 280 m (AMSL)
Location 27.837639° -0.186389°
Runways 1
Magnetic Variation 0.086° W

METAR

DAUA 181100Z 03019KT 8000 DRSA NSC 13/M00 Q1022

Decode

TAF

TAF DAUA 180500Z 1806/1906 04014KT CAVOK BECMG 1807/1809 04024KT 5000 DRSA TEMPO 1808/1816 3000 PROB40 TEMPO 1810/1814 04025G35KT 1000 BLSA BECMG 1817/1821 04014KT 8000 NSW

Decode

Departure Runways

ID Width Length Bearing (true) Bearing (mag) Surface Threshold Offset Overrun Length
04 148 ft / 45 m 9,857 ft / 3,005 m 39.53° 39.62° Asphalt 0 ft / 0 m 0 ft / 0 m
22 148 ft / 45 m 9,857 ft / 3,005 m 219.54° 219.63° Asphalt 0 ft / 0 m 0 ft / 0 m

DAUI

Details ICAO DAUI (INZ)
Name IN SALAH
Region Algeria
Timezone Africa/Algiers (UTC+1.0)
Stats Elevation 896 ft / 273 m (AMSL)
Location 27.251021° 2.512018°
Runways 1
Magnetic Variation 0.442° E

METAR

DAUI 181100Z 03020KT 6000 DRSA NSC 16/06 Q1020

Decode

TAF

TAF DAUI 180500Z 1806/1906 04024KT 8000 NSC TEMPO 1806/1816 3000 DRSA PROB30 TEMPO 1810/1814 04025G35KT 1000 BLSA BECMG 1818/1822 04015KT

Decode

Destination Runways

ID Width Length Bearing (true) Bearing (mag) Surface Threshold Offset Overrun Length
05 148 ft / 45 m 9,827 ft / 2,995 m 50.81° 50.37° Asphalt 0 ft / 0 m 150 ft / 46 m
23 148 ft / 45 m 9,827 ft / 2,995 m 230.82° 230.38° Asphalt 0 ft / 0 m 150 ft / 46 m